Time;durP1;ratioP1;P1;durP2;ratioP2;P2;SDS_P1;SDS_P2;PMS_P1;PMS_P2;Temp;Humidity;BMP_temperature;BMP_pressure;BME280_temperature;BME280_humidity;BME280_pressure;Samples;Min_cycle;Max_cycle;Signal;HPM_P1;HPM_P2
2023/04/22 00:02:22;;;;;;;;;;;;;;;;;;5082556;28;19928;-80
2023/04/22 00:05:12;;;;;;;;;;;;;;;;;;5067436;28;20650;-80
2023/04/22 00:07:58;;;;;;;;;;;;;;;;;;5081127;28;19923;-80
2023/04/22 00:10:45;;;;;;;;;;;;;;;;;;5083155;28;19916;-80
2023/04/22 00:13:31;;;;;;;;;;;;;;;;;;5090171;28;20005;-80
2023/04/22 00:16:18;;;;;;;;;;;;;;;;;;5085462;28;19922;-81
2023/04/22 00:19:04;;;;;;;;;;;;;;;;;;5086140;28;19924;-80
2023/04/22 00:21:51;;;;;;;;;;;;;;;;;;5067200;28;19912;-82
2023/04/22 00:24:37;;;;;;;;;;;;;;;;;;5077346;28;19916;-79
2023/04/22 00:27:24;;;;;;;;;;;;;;;;;;5081934;28;19915;-79
2023/04/22 00:30:10;;;;;;;;;;;;;;;;;;5082546;28;20465;-79
2023/04/22 00:32:57;;;;;;;;;;;;;;;;;;5082774;28;20393;-79
2023/04/22 00:35:43;;;;;;;;;;;;;;;;;;5084666;28;19923;-80
2023/04/22 00:38:30;;;;;;;;;;;;;;;;;;5068218;28;19920;-79
2023/04/22 00:41:16;;;;;;;;;;;;;;;;;;5084569;28;19926;-79
2023/04/22 00:44:03;;;;;;;;;;;;;;;;;;5092594;28;19924;-78
2023/04/22 00:46:49;;;;;;;;;;;;;;;;;;5096654;28;20271;-79
2023/04/22 00:49:36;;;;;;;;;;;;;;;;;;5077457;28;19927;-78
2023/04/22 00:52:22;;;;;;;;;;;;;;;;;;5081136;28;19920;-78
2023/04/22 00:55:09;;;;;;;;;;;;;;;;;;5100040;28;20489;-78
2023/04/22 00:57:55;;;;;;;;;;;;;;;;;;5094570;28;19920;-78
2023/04/22 01:00:42;;;;;;;;;;;;;;;;;;5077186;28;19927;-79
2023/04/22 01:03:29;;;;;;;;;;;;;;;;;;5083270;28;19928;-79
2023/04/22 01:06:15;;;;;;;;;;;;;;;;;;5073901;28;19916;-79
2023/04/22 01:09:02;;;;;;;;;;;;;;;;;;5079551;28;20350;-79
2023/04/22 01:11:48;;;;;;;;;;;;;;;;;;5086898;28;20354;-78
2023/04/22 01:14:35;;;;;;;;;;;;;;;;;;5089884;28;19923;-78
2023/04/22 01:17:23;;;;;;;;;;;;;;;;;;5088967;28;19923;-80
2023/04/22 01:20:10;;;;;;;;;;;;;;;;;;5085458;28;19920;-80
2023/04/22 01:22:56;;;;;;;;;;;;;;;;;;5083095;28;19931;-80
2023/04/22 01:25:43;;;;;;;;;;;;;;;;;;5086315;28;19916;-80
2023/04/22 01:28:30;;;;;;;;;;;;;;;;;;5086715;28;19927;-80
2023/04/22 01:31:16;;;;;;;;;;;;;;;;;;5078709;28;19963;-79
2023/04/22 01:34:03;;;;;;;;;;;;;;;;;;5078277;28;19928;-78
2023/04/22 01:36:49;;;;;;;;;;;;;;;;;;5085798;28;20516;-78
2023/04/22 01:39:36;;;;;;;;;;;;;;;;;;5068041;28;19927;-79
2023/04/22 01:42:22;;;;;;;;;;;;;;;;;;5077827;28;20367;-79
2023/04/22 01:45:09;;;;;;;;;;;;;;;;;;5074705;28;19920;-78
2023/04/22 01:47:55;;;;;;;;;;;;;;;;;;5083601;28;20469;-78
2023/04/22 01:50:42;;;;;;;;;;;;;;;;;;5079057;28;19928;-78
2023/04/22 01:53:28;;;;;;;;;;;;;;;;;;5087343;28;19965;-78
2023/04/22 01:56:15;;;;;;;;;;;;;;;;;;5085672;28;19928;-78
2023/04/22 01:59:01;;;;;;;;;;;;;;;;;;5079166;28;19920;-78
2023/04/22 02:01:48;;;;;;;;;;;;;;;;;;5077597;28;19921;-77
2023/04/22 02:04:34;;;;;;;;;;;;;;;;;;5090285;28;19920;-78
2023/04/22 02:07:21;;;;;;;;;;;;;;;;;;5095602;28;20287;-79
2023/04/22 02:10:08;;;;;;;;;;;;;;;;;;5059368;28;20007;-78
2023/04/22 02:12:54;;;;;;;;;;;;;;;;;;5089238;28;20749;-78
2023/04/22 02:15:41;;;;;;;;;;;;;;;;;;5073491;28;19921;-78
2023/04/22 02:18:27;;;;;;;;;;;;;;;;;;5082463;28;19923;-78
2023/04/22 02:21:14;;;;;;;;;;;;;;;;;;5078232;28;19974;-78
2023/04/22 02:24:00;;;;;;;;;;;;;;;;;;5082864;28;19931;-79
2023/04/22 02:26:48;;;;;;;;;;;;;;;;;;5080429;28;19927;-77
2023/04/22 02:29:34;;;;;;;;;;;;;;;;;;5085855;28;19923;-78
2023/04/22 02:32:20;;;;;;;;;;;;;;;;;;5074859;28;19950;-78
2023/04/22 02:35:07;;;;;;;;;;;;;;;;;;5091261;28;19930;-78
2023/04/22 02:37:54;;;;;;;;;;;;;;;;;;5084784;28;19923;-78
2023/04/22 02:40:40;;;;;;;;;;;;;;;;;;5094021;28;19923;-78
2023/04/22 02:43:27;;;;;;;;;;;;;;;;;;5086210;28;19947;-77
2023/04/22 02:46:14;;;;;;;;;;;;;;;;;;5074467;28;20411;-78
2023/04/22 02:49:01;;;;;;;;;;;;;;;;;;5083360;28;19924;-78
2023/04/22 02:51:47;;;;;;;;;;;;;;;;;;5084188;28;19928;-78
2023/04/22 02:54:34;;;;;;;;;;;;;;;;;;5080725;28;20321;-78
2023/04/22 02:57:21;;;;;;;;;;;;;;;;;;5089342;28;19924;-79
2023/04/22 03:00:07;;;;;;;;;;;;;;;;;;5083855;28;20510;-80
2023/04/22 03:02:54;;;;;;;;;;;;;;;;;;5083453;28;19928;-80
2023/04/22 03:05:40;;;;;;;;;;;;;;;;;;5090569;28;19927;-81
2023/04/22 03:08:27;;;;;;;;;;;;;;;;;;5083885;28;19927;-78
2023/04/22 03:11:13;;;;;;;;;;;;;;;;;;5060016;28;20644;-79
2023/04/22 03:13:59;;;;;;;;;;;;;;;;;;5082079;28;19922;-78
2023/04/22 03:16:46;;;;;;;;;;;;;;;;;;5083422;28;19916;-79
2023/04/22 03:19:32;;;;;;;;;;;;;;;;;;5068440;28;20383;-78
2023/04/22 03:22:19;;;;;;;;;;;;;;;;;;5084271;28;19935;-79
2023/04/22 03:25:05;;;;;;;;;;;;;;;;;;5076144;28;19927;-78
2023/04/22 03:27:52;;;;;;;;;;;;;;;;;;5082349;28;20287;-78
2023/04/22 03:30:38;;;;;;;;;;;;;;;;;;5068818;28;20395;-78
2023/04/22 03:33:25;;;;;;;;;;;;;;;;;;5079738;28;19943;-78
2023/04/22 03:36:11;;;;;;;;;;;;;;;;;;5083295;28;20330;-78
2023/04/22 03:38:58;;;;;;;;;;;;;;;;;;5083057;28;19916;-79
2023/04/22 03:41:46;;;;;;;;;;;;;;;;;;5083040;28;20481;-80
2023/04/22 03:44:33;;;;;;;;;;;;;;;;;;5077317;28;19932;-79
2023/04/22 03:47:19;;;;;;;;;;;;;;;;;;5080646;28;19921;-79
2023/04/22 03:50:06;;;;;;;;;;;;;;;;;;5080219;28;19916;-78
2023/04/22 03:52:52;;;;;;;;;;;;;;;;;;5078592;28;19916;-79
2023/04/22 03:55:39;;;;;;;;;;;;;;;;;;5079518;28;19916;-79
2023/04/22 03:58:25;;;;;;;;;;;;;;;;;;5068064;28;19924;-79
2023/04/22 04:01:12;;;;;;;;;;;;;;;;;;5075742;28;19924;-79
2023/04/22 04:03:58;;;;;;;;;;;;;;;;;;5082769;28;20379;-78
2023/04/22 04:06:45;;;;;;;;;;;;;;;;;;5083610;28;19927;-79
2023/04/22 04:09:31;;;;;;;;;;;;;;;;;;5082540;28;20562;-79
2023/04/22 04:12:18;;;;;;;;;;;;;;;;;;5075739;28;20377;-79
2023/04/22 04:15:04;;;;;;;;;;;;;;;;;;5082030;28;19939;-78
2023/04/22 04:17:51;;;;;;;;;;;;;;;;;;5083593;28;20390;-78
2023/04/22 04:20:37;;;;;;;;;;;;;;;;;;5083150;28;19920;-79
2023/04/22 04:23:23;;;;;;;;;;;;;;;;;;5082319;28;19932;-79
2023/04/22 04:26:10;;;;;;;;;;;;;;;;;;5065510;28;19917;-79
2023/04/22 04:28:57;;;;;;;;;;;;;;;;;;5069755;28;19926;-79
2023/04/22 04:31:43;;;;;;;;;;;;;;;;;;5078422;28;19921;-79
2023/04/22 04:34:33;;;;;;;;;;;;;;;;;;5059066;28;20288;-79
2023/04/22 04:37:21;;;;;;;;;;;;;;;;;;5044768;28;20299;-79
2023/04/22 04:40:09;;;;;;;;;;;;;;;;;;5054908;28;19924;-79
2023/04/22 04:42:56;;;;;;;;;;;;;;;;;;5061570;28;19923;-80
2023/04/22 04:45:45;;;;;;;;;;;;;;;;;;5060905;28;19929;-80
2023/04/22 04:48:34;;;;;;;;;;;;;;;;;;5062925;28;19928;-81
2023/04/22 04:51:21;;;;;;;;;;;;;;;;;;5045804;28;19927;-80
2023/04/22 04:54:07;;;;;;;;;;;;;;;;;;5068369;28;20391;-80
2023/04/22 04:56:54;;;;;;;;;;;;;;;;;;5061028;28;19958;-79
2023/04/22 04:59:40;;;;;;;;;;;;;;;;;;5064226;28;20546;-80
2023/04/22 05:02:27;;;;;;;;;;;;;;;;;;5056891;28;19931;-81
2023/04/22 05:05:13;;;;;;;;;;;;;;;;;;5049447;28;19927;-80
2023/04/22 05:08:00;;;;;;;;;;;;;;;;;;5062769;28;20402;-79
2023/04/22 05:10:46;;;;;;;;;;;;;;;;;;5051739;28;19916;-80
2023/04/22 05:13:33;;;;;;;;;;;;;;;;;;5057260;28;19924;-80
2023/04/22 05:16:19;;;;;;;;;;;;;;;;;;5062853;28;19917;-79
2023/04/22 05:19:05;;;;;;;;;;;;;;;;;;5057017;28;19913;-79
2023/04/22 05:21:52;;;;;;;;;;;;;;;;;;5049577;28;19921;-79
2023/04/22 05:24:38;;;;;;;;;;;;;;;;;;5067301;28;20647;-80
2023/04/22 05:27:25;;;;;;;;;;;;;;;;;;5056097;28;19923;-80
2023/04/22 05:30:11;;;;;;;;;;;;;;;;;;5064260;28;19920;-80
2023/04/22 05:32:58;;;;;;;;;;;;;;;;;;5079490;28;19935;-80
2023/04/22 05:35:44;;;;;;;;;;;;;;;;;;5082052;28;19923;-80
2023/04/22 05:38:31;;;;;;;;;;;;;;;;;;5075664;28;19920;-81
2023/04/22 05:41:17;;;;;;;;;;;;;;;;;;5084682;28;20291;-80
2023/04/22 05:44:04;;;;;;;;;;;;;;;;;;5084927;28;19939;-81
2023/04/22 05:46:50;;;;;;;;;;;;;;;;;;5079826;28;19926;-81
2023/04/22 05:49:37;;;;;;;;;;;;;;;;;;5080988;28;19923;-82
2023/04/22 05:52:23;;;;;;;;;;;;;;;;;;5082097;28;19951;-81
2023/04/22 05:55:10;;;;;;;;;;;;;;;;;;5081497;28;20527;-82
2023/04/22 05:57:56;;;;;;;;;;;;;;;;;;5085608;28;19928;-80
2023/04/22 06:00:43;;;;;;;;;;;;;;;;;;5076151;28;19938;-80
2023/04/22 06:03:29;;;;;;;;;;;;;;;;;;5094019;28;19942;-80
2023/04/22 06:06:15;;;;;;;;;;;;;;;;;;5069331;28;20009;-79
2023/04/22 06:09:02;;;;;;;;;;;;;;;;;;5075841;28;19916;-78
2023/04/22 06:11:48;;;;;;;;;;;;;;;;;;5084012;28;19919;-78
2023/04/22 06:14:35;;;;;;;;;;;;;;;;;;5083398;28;19930;-78
2023/04/22 06:17:21;;;;;;;;;;;;;;;;;;5082448;28;19923;-79
2023/04/22 06:20:08;;;;;;;;;;;;;;;;;;5084379;28;19913;-79
2023/04/22 06:22:55;;;;;;;;;;;;;;;;;;5078877;28;19924;-79
2023/04/22 06:25:42;;;;;;;;;;;;;;;;;;5085469;28;19927;-79
2023/04/22 06:28:28;;;;;;;;;;;;;;;;;;5085365;28;20320;-80
2023/04/22 06:31:15;;;;;;;;;;;;;;;;;;5084092;28;19931;-79
2023/04/22 06:34:01;;;;;;;;;;;;;;;;;;5081522;28;19928;-79
2023/04/22 06:36:48;;;;;;;;;;;;;;;;;;5081340;28;19916;-79
2023/04/22 06:39:34;;;;;;;;;;;;;;;;;;5081697;28;19928;-78
2023/04/22 06:42:21;;;;;;;;;;;;;;;;;;5083799;28;19923;-79
2023/04/22 06:45:08;;;;;;;;;;;;;;;;;;5081721;28;21283;-78
2023/04/22 06:47:54;;;;;;;;;;;;;;;;;;5075158;28;19935;-79
2023/04/22 06:50:41;;;;;;;;;;;;;;;;;;5082499;28;19925;-80
2023/04/22 06:53:27;;;;;;;;;;;;;;;;;;5075902;28;21055;-80
2023/04/22 06:56:14;;;;;;;;;;;;;;;;;;5077610;28;19927;-80
2023/04/22 06:59:01;;;;;;;;;;;;;;;;;;5082274;28;19935;-79
2023/04/22 07:01:47;;;;;;;;;;;;;;;;;;5078371;28;19926;-78
2023/04/22 07:04:33;;;;;;;;;;;;;;;;;;5074558;28;19962;-80
2023/04/22 07:07:20;;;;;;;;;;;;;;;;;;5071251;28;19920;-78
2023/04/22 07:10:06;;;;;;;;;;;;;;;;;;5078815;28;21011;-78
2023/04/22 07:12:53;;;;;;;;;;;;;;;;;;5080647;28;19924;-79
2023/04/22 07:15:39;;;;;;;;;;;;;;;;;;5076659;28;19951;-80
2023/04/22 07:18:26;;;;;;;;;;;;;;;;;;5079120;28;19944;-80
2023/04/22 07:21:12;;;;;;;;;;;;;;;;;;5077038;28;19920;-79
2023/04/22 07:23:59;;;;;;;;;;;;;;;;;;5065708;28;19939;-78
2023/04/22 07:26:45;;;;;;;;;;;;;;;;;;5079200;28;19920;-78
2023/04/22 07:29:32;;;;;;;;;;;;;;;;;;5077136;28;19920;-78
2023/04/22 07:32:18;;;;;;;;;;;;;;;;;;5058037;28;19935;-79
2023/04/22 07:35:05;;;;;;;;;;;;;;;;;;5058838;28;19920;-88
2023/04/22 07:37:51;;;;;;;;;;;;;;;;;;5046966;28;19920;-80
2023/04/22 07:40:38;;;;;;;;;;;;;;;;;;5056946;28;19927;-81
2023/04/22 07:43:24;;;;;;;;;;;;;;;;;;5055978;28;19956;-81
2023/04/22 07:46:11;;;;;;;;;;;;;;;;;;5064167;28;20253;-84
2023/04/22 07:48:57;;;;;;;;;;;;;;;;;;5063594;28;19923;-83
2023/04/22 07:51:44;;;;;;;;;;;;;;;;;;5052951;28;19928;-81
2023/04/22 07:54:30;;;;;;;;;;;;;;;;;;5050244;28;19920;-84
2023/04/22 07:57:20;;;;;;;;;;;;;;;;;;5072009;28;19939;-84
2023/04/22 08:00:07;;;;;;;;;;;;;;;;;;5058104;28;19925;-85
2023/04/22 08:02:53;;;;;;;;;;;;;;;;;;5061332;28;19939;-85
2023/04/22 08:05:40;;;;;;;;;;;;;;;;;;5050696;28;19925;-83
2023/04/22 08:08:26;;;;;;;;;;;;;;;;;;5059355;28;19920;-80
2023/04/22 08:11:13;;;;;;;;;;;;;;;;;;5059776;28;20613;-80
2023/04/22 08:13:59;;;;;;;;;;;;;;;;;;5062018;28;19916;-80
2023/04/22 08:16:46;;;;;;;;;;;;;;;;;;5053481;28;20246;-81
2023/04/22 08:19:32;;;;;;;;;;;;;;;;;;5064013;28;19921;-81
2023/04/22 08:22:18;;;;;;;;;;;;;;;;;;5059520;28;19921;-80
2023/04/22 08:25:05;;;;;;;;;;;;;;;;;;5050351;28;19928;-81
2023/04/22 08:27:52;;;;;;;;;;;;;;;;;;5057484;28;19927;-80
2023/04/22 08:30:38;;;;;;;;;;;;;;;;;;5058116;28;20274;-81
2023/04/22 08:33:25;;;;;;;;;;;;;;;;;;5061974;28;19935;-81
2023/04/22 08:36:11;;;;;;;;;;;;;;;;;;5060417;28;19913;-81
2023/04/22 08:38:57;;;;;;;;;;;;;;;;;;5043689;28;20388;-80
2023/04/22 08:41:45;;;;;;;;;;;;;;;;;;5062497;28;19928;-78
2023/04/22 08:44:32;;;;;;;;;;;;;;;;;;5059412;28;19935;-79
2023/04/22 08:47:18;;;;;;;;;;;;;;;;;;5087521;28;19954;-78
2023/04/22 08:50:05;;;;;;;;;;;;;;;;;;5077699;28;20400;-77
2023/04/22 08:52:51;;;;;;;;;;;;;;;;;;5075696;28;19931;-78
2023/04/22 08:55:38;;;;;;;;;;;;;;;;;;5083299;28;19943;-77
2023/04/22 08:58:24;;;;;;;;;;;;;;;;;;5075772;28;19920;-77
2023/04/22 09:01:11;;;;;;;;;;;;;;;;;;5060227;28;19916;-78
2023/04/22 09:03:57;;;;;;;;;;;;;;;;;;5080633;28;19932;-80
2023/04/22 09:06:44;;;;;;;;;;;;;;;;;;5077776;28;20602;-74
2023/04/22 09:09:31;;;;;;;;;;;;;;;;;;5083476;28;19916;-72
2023/04/22 09:12:18;;;;;;;;;;;;;;;;;;5069621;28;19923;-75
2023/04/22 09:15:04;;;;;;;;;;;;;;;;;;5078866;28;20574;-73
2023/04/22 09:17:50;;;;;;;;;;;;;;;;;;5075659;28;19927;-73
2023/04/22 09:20:37;;;;;;;;;;;;;;;;;;5083557;28;19934;-72
2023/04/22 09:23:23;;;;;;;;;;;;;;;;;;5093330;28;19947;-73
2023/04/22 09:26:10;;;;;;;;;;;;;;;;;;5068342;28;19921;-73
2023/04/22 09:28:59;;;;;;;;;;;;;;;;;;5084196;28;20394;-73
2023/04/22 09:31:46;;;;;;;;;;;;;;;;;;5088983;28;19935;-73
2023/04/22 09:34:33;;;;;;;;;;;;;;;;;;5086426;28;19916;-73
2023/04/22 09:37:22;;;;;;;;;;;;;;;;;;5077547;28;20295;-73
2023/04/22 09:40:08;;;;;;;;;;;;;;;;;;5064789;28;19912;-73
2023/04/22 09:42:55;;;;;;;;;;;;;;;;;;5085748;28;19916;-73
2023/04/22 09:45:42;;;;;;;;;;;;;;;;;;5088050;28;19920;-73
2023/04/22 09:48:28;;;;;;;;;;;;;;;;;;5085715;28;19923;-72
2023/04/22 09:51:17;;;;;;;;;;;;;;;;;;5078450;28;20378;-72
2023/04/22 09:54:07;;;;;;;;;;;;;;;;;;5084564;28;20725;-73
2023/04/22 09:56:53;;;;;;;;;;;;;;;;;;5078102;28;20351;-73
2023/04/22 09:59:40;;;;;;;;;;;;;;;;;;5093594;28;19938;-72
2023/04/22 10:02:26;;;;;;;;;;;;;;;;;;5081717;28;19938;-72
2023/04/22 10:05:13;;;;;;;;;;;;;;;;;;5080485;28;19924;-73
2023/04/22 10:08:00;;;;;;;;;;;;;;;;;;5081127;28;20383;-72
2023/04/22 10:10:46;;;;;;;;;;;;;;;;;;5085366;28;19916;-74
2023/04/22 10:13:35;;;;;;;;;;;;;;;;;;5085345;28;20621;-74
2023/04/22 10:16:21;;;;;;;;;;;;;;;;;;5085863;28;19913;-73
2023/04/22 10:19:08;;;;;;;;;;;;;;;;;;5085315;28;20563;-72
2023/04/22 10:21:54;;;;;;;;;;;;;;;;;;5086690;28;19943;-74
2023/04/22 10:24:41;;;;;;;;;;;;;;;;;;5084029;28;19924;-73
2023/04/22 10:27:27;;;;;;;;;;;;;;;;;;5069963;28;19923;-73
2023/04/22 10:30:14;;;;;;;;;;;;;;;;;;5085333;28;19912;-73
2023/04/22 10:33:00;;;;;;;;;;;;;;;;;;5068255;28;20384;-73
2023/04/22 10:35:47;;;;;;;;;;;;;;;;;;5098464;28;19916;-74
2023/04/22 10:38:33;;;;;;;;;;;;;;;;;;5072277;28;19923;-73
2023/04/22 10:41:20;;;;;;;;;;;;;;;;;;5097982;28;19919;-74
2023/04/22 10:44:06;;;;;;;;;;;;;;;;;;5096967;28;19934;-73
2023/04/22 10:46:53;;;;;;;;;;;;;;;;;;5082576;28;19924;-74
2023/04/22 10:49:39;;;;;;;;;;;;;;;;;;5082585;28;19917;-73
2023/04/22 10:52:26;;;;;;;;;;;;;;;;;;5080744;28;19940;-74
2023/04/22 10:55:12;;;;;;;;;;;;;;;;;;5078819;28;19920;-74
2023/04/22 10:57:59;;;;;;;;;;;;;;;;;;5057554;28;20342;-74
2023/04/22 11:00:46;;;;;;;;;;;;;;;;;;5084662;28;19920;-74
2023/04/22 11:03:33;;;;;;;;;;;;;;;;;;5081918;28;19991;-74
2023/04/22 11:06:21;;;;;;;;;;;;;;;;;;5082567;28;19923;-73
2023/04/22 11:09:07;;;;;;;;;;;;;;;;;;5081547;28;19931;-74
2023/04/22 11:11:54;;;;;;;;;;;;;;;;;;5079863;28;19924;-73
2023/04/22 11:14:40;;;;;;;;;;;;;;;;;;5079375;28;19916;-73
2023/04/22 11:17:27;;;;;;;;;;;;;;;;;;5082996;28;19916;-73
2023/04/22 11:20:16;;;;;;;;;;;;;;;;;;5066711;28;20434;-73
2023/04/22 11:23:02;;;;;;;;;;;;;;;;;;5081975;28;19939;-73
2023/04/22 11:25:49;;;;;;;;;;;;;;;;;;5080952;28;19920;-74
2023/04/22 11:28:36;;;;;;;;;;;;;;;;;;5058746;28;19917;-73
2023/04/22 11:31:22;;;;;;;;;;;;;;;;;;5079160;28;19920;-74
2023/04/22 11:34:09;;;;;;;;;;;;;;;;;;5062810;28;20286;-74
2023/04/22 11:36:55;;;;;;;;;;;;;;;;;;5083553;28;19922;-74
2023/04/22 11:39:42;;;;;;;;;;;;;;;;;;5084877;28;19926;-74
2023/04/22 11:42:28;;;;;;;;;;;;;;;;;;5065283;28;19936;-74
2023/04/22 11:45:15;;;;;;;;;;;;;;;;;;5073304;28;19924;-74
2023/04/22 11:48:01;;;;;;;;;;;;;;;;;;5081249;28;19936;-74
2023/04/22 11:50:48;;;;;;;;;;;;;;;;;;5087048;28;19931;-75
2023/04/22 11:53:34;;;;;;;;;;;;;;;;;;5087063;28;19924;-74
2023/04/22 11:56:21;;;;;;;;;;;;;;;;;;5083189;28;19912;-74
2023/04/22 11:59:07;;;;;;;;;;;;;;;;;;5074645;28;20370;-74
2023/04/22 12:01:54;;;;;;;;;;;;;;;;;;5076373;28;19917;-74
2023/04/22 12:04:41;;;;;;;;;;;;;;;;;;5080025;28;19932;-75
2023/04/22 12:07:27;;;;;;;;;;;;;;;;;;5079053;28;19920;-74
2023/04/22 12:10:13;;;;;;;;;;;;;;;;;;5075301;28;19916;-74
2023/04/22 12:13:00;;;;;;;;;;;;;;;;;;5083316;28;20457;-73
2023/04/22 12:15:47;;;;;;;;;;;;;;;;;;5078435;28;19917;-77
2023/04/22 12:18:33;;;;;;;;;;;;;;;;;;5082627;28;19922;-74
2023/04/22 12:21:20;;;;;;;;;;;;;;;;;;5068908;28;19922;-75
2023/04/22 12:24:07;;;;;;;;;;;;;;;;;;5068695;28;19924;-75
2023/04/22 12:26:53;;;;;;;;;;;;;;;;;;5074448;28;19920;-75
2023/04/22 12:29:40;;;;;;;;;;;;;;;;;;5081624;28;19926;-74
2023/04/22 12:32:26;;;;;;;;;;;;;;;;;;5067717;28;19940;-75
2023/04/22 12:35:13;;;;;;;;;;;;;;;;;;5062537;28;19924;-77
2023/04/22 12:38:00;;;;;;;;;;;;;;;;;;5064837;28;19951;-77
2023/04/22 12:40:47;;;;;;;;;;;;;;;;;;5067078;28;19920;-75
2023/04/22 12:43:35;;;;;;;;;;;;;;;;;;5066224;28;19924;-76
2023/04/22 12:46:21;;;;;;;;;;;;;;;;;;5064153;28;19936;-75
2023/04/22 12:49:08;;;;;;;;;;;;;;;;;;5070738;28;20602;-77
2023/04/22 12:51:54;;;;;;;;;;;;;;;;;;5058046;28;21220;-78
2023/04/22 12:54:41;;;;;;;;;;;;;;;;;;5064068;28;19916;-78
2023/04/22 12:57:27;;;;;;;;;;;;;;;;;;5055404;28;19931;-79
2023/04/22 13:00:15;;;;;;;;;;;;;;;;;;5057530;28;19924;-79
2023/04/22 13:03:01;;;;;;;;;;;;;;;;;;5064021;28;19975;-78
2023/04/22 13:05:47;;;;;;;;;;;;;;;;;;5065250;28;19925;-79
2023/04/22 13:08:34;;;;;;;;;;;;;;;;;;5061536;28;19927;-76
2023/04/22 13:11:21;;;;;;;;;;;;;;;;;;5057881;28;19916;-77
2023/04/22 13:14:07;;;;;;;;;;;;;;;;;;5053531;28;19933;-77
2023/04/22 13:16:54;;;;;;;;;;;;;;;;;;5057685;28;19913;-77
2023/04/22 13:19:40;;;;;;;;;;;;;;;;;;5071385;28;19940;-76
2023/04/22 13:22:27;;;;;;;;;;;;;;;;;;5062114;28;20380;-77
2023/04/22 13:25:13;;;;;;;;;;;;;;;;;;5060355;28;19933;-77
2023/04/22 13:28:00;;;;;;;;;;;;;;;;;;5061507;28;20379;-78
2023/04/22 13:30:46;;;;;;;;;;;;;;;;;;5055823;28;19917;-77
2023/04/22 13:33:33;;;;;;;;;;;;;;;;;;5063761;28;20376;-77
2023/04/22 13:36:19;;;;;;;;;;;;;;;;;;5059753;28;19927;-77
2023/04/22 13:39:07;;;;;;;;;;;;;;;;;;5053340;28;19920;-77
2023/04/22 13:41:53;;;;;;;;;;;;;;;;;;5062568;28;20272;-77
2023/04/22 13:44:40;;;;;;;;;;;;;;;;;;5062148;28;19924;-77
2023/04/22 13:47:26;;;;;;;;;;;;;;;;;;5049959;28;19917;-77
2023/04/22 13:50:13;;;;;;;;;;;;;;;;;;5065097;28;19921;-76
2023/04/22 13:52:59;;;;;;;;;;;;;;;;;;5063586;28;19920;-76
2023/04/22 13:55:46;;;;;;;;;;;;;;;;;;5065550;28;19925;-76
2023/04/22 13:58:32;;;;;;;;;;;;;;;;;;5047989;28;19923;-76
2023/04/22 14:01:19;;;;;;;;;;;;;;;;;;5056350;28;19924;-75
2023/04/22 14:04:06;;;;;;;;;;;;;;;;;;5059976;28;20435;-75
2023/04/22 14:06:52;;;;;;;;;;;;;;;;;;5057574;28;19920;-76
2023/04/22 14:09:39;;;;;;;;;;;;;;;;;;5064543;28;20358;-75
2023/04/22 14:12:25;;;;;;;;;;;;;;;;;;5063026;28;19928;-76
2023/04/22 14:15:12;;;;;;;;;;;;;;;;;;5063663;28;19917;-75
2023/04/22 14:17:58;;;;;;;;;;;;;;;;;;5061679;28;20271;-75
2023/04/22 14:20:45;;;;;;;;;;;;;;;;;;5063219;28;19925;-76
2023/04/22 14:23:31;;;;;;;;;;;;;;;;;;5062009;28;19919;-76
2023/04/22 14:26:18;;;;;;;;;;;;;;;;;;5060497;28;19931;-77
2023/04/22 14:29:04;;;;;;;;;;;;;;;;;;5053886;28;20166;-77
2023/04/22 14:31:51;;;;;;;;;;;;;;;;;;5068278;28;20391;-77
2023/04/22 14:34:38;;;;;;;;;;;;;;;;;;5079021;28;19920;-76
2023/04/22 14:37:24;;;;;;;;;;;;;;;;;;5082089;28;19916;-76
2023/04/22 14:40:11;;;;;;;;;;;;;;;;;;5058451;28;20002;-75
2023/04/22 14:42:57;;;;;;;;;;;;;;;;;;5081869;28;19943;-75
2023/04/22 14:45:44;;;;;;;;;;;;;;;;;;5084563;28;19928;-76
2023/04/22 14:48:31;;;;;;;;;;;;;;;;;;5081727;28;19920;-76
2023/04/22 14:51:17;;;;;;;;;;;;;;;;;;5064085;28;19935;-77
2023/04/22 14:54:04;;;;;;;;;;;;;;;;;;5081698;28;19923;-76
2023/04/22 14:56:53;;;;;;;;;;;;;;;;;;5082677;28;19920;-76
2023/04/22 14:59:39;;;;;;;;;;;;;;;;;;5078860;28;19927;-76
2023/04/22 15:02:26;;;;;;;;;;;;;;;;;;5081152;28;19924;-77
2023/04/22 15:05:12;;;;;;;;;;;;;;;;;;5080294;28;19928;-76
2023/04/22 15:07:59;;;;;;;;;;;;;;;;;;5065814;28;19920;-77
2023/04/22 15:10:45;;;;;;;;;;;;;;;;;;5064307;28;19923;-77
2023/04/22 15:13:32;;;;;;;;;;;;;;;;;;5067000;28;19919;-77
2023/04/22 15:16:18;;;;;;;;;;;;;;;;;;5077284;28;20527;-78
2023/04/22 15:19:05;;;;;;;;;;;;;;;;;;5071581;28;19921;-78
2023/04/22 15:21:51;;;;;;;;;;;;;;;;;;5082671;28;19927;-78
2023/04/22 15:24:38;;;;;;;;;;;;;;;;;;5075843;28;19931;-77
2023/04/22 15:27:24;;;;;;;;;;;;;;;;;;5075168;28;19920;-78
2023/04/22 15:30:11;;;;;;;;;;;;;;;;;;5061507;28;20307;-76
2023/04/22 15:32:57;;;;;;;;;;;;;;;;;;5075821;28;19928;-77
2023/04/22 15:35:46;;;;;;;;;;;;;;;;;;5074870;28;19916;-76
2023/04/22 15:38:32;;;;;;;;;;;;;;;;;;5066577;28;19923;-77
2023/04/22 15:41:19;;;;;;;;;;;;;;;;;;5079446;28;20410;-77
2023/04/22 15:44:06;;;;;;;;;;;;;;;;;;5075261;28;19920;-78
2023/04/22 15:46:52;;;;;;;;;;;;;;;;;;5080132;28;19927;-78
2023/04/22 15:49:39;;;;;;;;;;;;;;;;;;5082208;28;19927;-78
2023/04/22 15:52:25;;;;;;;;;;;;;;;;;;5076614;28;20396;-77
2023/04/22 15:55:12;;;;;;;;;;;;;;;;;;5062089;28;20021;-78
2023/04/22 15:57:58;;;;;;;;;;;;;;;;;;5080618;28;19942;-77
2023/04/22 16:00:45;;;;;;;;;;;;;;;;;;5078297;28;19923;-79
2023/04/22 16:03:31;;;;;;;;;;;;;;;;;;5079896;28;19916;-78
2023/04/22 16:06:18;;;;;;;;;;;;;;;;;;5080810;28;19951;-78
2023/04/22 16:09:05;;;;;;;;;;;;;;;;;;5081827;28;20395;-77
2023/04/22 16:11:52;;;;;;;;;;;;;;;;;;5081678;28;19920;-77
2023/04/22 16:14:38;;;;;;;;;;;;;;;;;;5082262;28;19923;-77
2023/04/22 16:17:25;;;;;;;;;;;;;;;;;;5083634;28;19924;-77
2023/04/22 16:20:12;;;;;;;;;;;;;;;;;;5080802;28;19927;-78
2023/04/22 16:22:58;;;;;;;;;;;;;;;;;;5081693;28;19925;-77
2023/04/22 16:25:45;;;;;;;;;;;;;;;;;;5086426;28;20296;-76
2023/04/22 16:28:31;;;;;;;;;;;;;;;;;;5069802;28;20276;-75
2023/04/22 16:31:21;;;;;;;;;;;;;;;;;;5064765;28;19921;-76
2023/04/22 16:34:07;;;;;;;;;;;;;;;;;;5072454;28;19934;-76
2023/04/22 16:36:54;;;;;;;;;;;;;;;;;;5063331;28;19920;-78
2023/04/22 16:39:40;;;;;;;;;;;;;;;;;;5077851;28;19921;-78
2023/04/22 16:42:27;;;;;;;;;;;;;;;;;;5080665;28;19924;-79
2023/04/22 16:45:13;;;;;;;;;;;;;;;;;;5068495;28;19943;-78
2023/04/22 16:48:00;;;;;;;;;;;;;;;;;;5080726;28;19916;-78
2023/04/22 16:50:46;;;;;;;;;;;;;;;;;;5082357;28;19927;-77
2023/04/22 16:53:33;;;;;;;;;;;;;;;;;;5074829;28;19920;-78
2023/04/22 16:56:19;;;;;;;;;;;;;;;;;;5079909;28;20470;-77
2023/04/22 16:59:06;;;;;;;;;;;;;;;;;;5078863;28;19947;-77
2023/04/22 17:01:52;;;;;;;;;;;;;;;;;;5076071;28;20307;-78
2023/04/22 17:04:39;;;;;;;;;;;;;;;;;;5080347;28;19927;-78
2023/04/22 17:07:25;;;;;;;;;;;;;;;;;;5077761;28;19920;-76
2023/04/22 17:10:12;;;;;;;;;;;;;;;;;;5082415;28;19928;-77
2023/04/22 17:12:58;;;;;;;;;;;;;;;;;;5076221;28;19920;-77
2023/04/22 17:15:45;;;;;;;;;;;;;;;;;;5083079;28;19928;-77
2023/04/22 17:18:31;;;;;;;;;;;;;;;;;;5084967;28;19920;-76
2023/04/22 17:21:18;;;;;;;;;;;;;;;;;;5088239;28;20448;-78
2023/04/22 17:24:04;;;;;;;;;;;;;;;;;;5085365;28;19924;-77
2023/04/22 17:26:51;;;;;;;;;;;;;;;;;;5083921;28;19927;-77
2023/04/22 17:29:37;;;;;;;;;;;;;;;;;;5073200;28;19927;-77
2023/04/22 17:32:24;;;;;;;;;;;;;;;;;;5081517;28;19928;-77
2023/04/22 17:35:10;;;;;;;;;;;;;;;;;;5086426;28;20300;-77
2023/04/22 17:37:57;;;;;;;;;;;;;;;;;;5085469;28;19924;-77
2023/04/22 17:40:44;;;;;;;;;;;;;;;;;;5076837;28;20469;-77
2023/04/22 17:43:30;;;;;;;;;;;;;;;;;;5069800;28;20509;-77
2023/04/22 17:46:16;;;;;;;;;;;;;;;;;;5085072;28;19924;-77
2023/04/22 17:49:03;;;;;;;;;;;;;;;;;;5077884;28;19923;-77
2023/04/22 17:51:49;;;;;;;;;;;;;;;;;;5078124;28;19920;-77
2023/04/22 17:54:36;;;;;;;;;;;;;;;;;;5079307;28;19946;-77
2023/04/22 17:57:23;;;;;;;;;;;;;;;;;;5079524;28;19920;-76
2023/04/22 18:00:09;;;;;;;;;;;;;;;;;;5083402;28;19947;-76
2023/04/22 18:02:56;;;;;;;;;;;;;;;;;;5076783;28;19917;-77
2023/04/22 18:05:43;;;;;;;;;;;;;;;;;;5068832;28;19928;-77
2023/04/22 18:08:30;;;;;;;;;;;;;;;;;;5078329;28;19921;-78
2023/04/22 18:11:16;;;;;;;;;;;;;;;;;;5079662;28;19935;-76
2023/04/22 18:14:03;;;;;;;;;;;;;;;;;;5081914;28;19923;-77
2023/04/22 18:16:49;;;;;;;;;;;;;;;;;;5066351;28;19928;-75
2023/04/22 18:19:36;;;;;;;;;;;;;;;;;;5073654;28;19923;-75
2023/04/22 18:22:22;;;;;;;;;;;;;;;;;;5081420;28;19924;-76
2023/04/22 18:25:09;;;;;;;;;;;;;;;;;;5075233;28;19935;-76
2023/04/22 18:27:55;;;;;;;;;;;;;;;;;;5081791;28;19920;-75
2023/04/22 18:30:43;;;;;;;;;;;;;;;;;;5079933;28;19938;-76
2023/04/22 18:33:30;;;;;;;;;;;;;;;;;;5078865;28;19951;-76
2023/04/22 18:36:17;;;;;;;;;;;;;;;;;;5078392;28;19947;-76
2023/04/22 18:39:04;;;;;;;;;;;;;;;;;;5081537;28;19920;-76
2023/04/22 18:41:51;;;;;;;;;;;;;;;;;;5076655;28;19938;-77
2023/04/22 18:44:37;;;;;;;;;;;;;;;;;;5080918;28;20334;-76
2023/04/22 18:47:24;;;;;;;;;;;;;;;;;;5078997;28;19922;-75
2023/04/22 18:50:11;;;;;;;;;;;;;;;;;;5083930;28;20555;-75
2023/04/22 18:52:57;;;;;;;;;;;;;;;;;;5081423;28;19931;-76
2023/04/22 18:55:44;;;;;;;;;;;;;;;;;;5078619;28;19923;-76
2023/04/22 18:58:30;;;;;;;;;;;;;;;;;;5081809;28;19920;-75